createdAt,value
2023-04-29T00:00:32.367Z,11.12
2023-04-29T00:01:32.348Z,11.06
2023-04-29T00:02:32.517Z,11.08
2023-04-29T00:03:32.663Z,11.08
2023-04-29T00:04:32.434Z,10.80
2023-04-29T00:05:32.487Z,10.75
2023-04-29T00:06:32.388Z,10.63
2023-04-29T00:07:32.311Z,10.46
2023-04-29T00:08:32.328Z,10.55
2023-04-29T00:09:32.287Z,10.62
2023-04-29T00:10:32.276Z,10.52
2023-04-29T00:11:32.289Z,10.60
2023-04-29T00:12:32.253Z,10.55
2023-04-29T00:13:32.278Z,10.62
2023-04-29T00:14:32.241Z,10.52
2023-04-29T00:15:32.251Z,10.60
2023-04-29T00:16:32.395Z,10.52
2023-04-29T00:17:32.229Z,10.29
2023-04-29T00:18:32.252Z,10.42
2023-04-29T00:19:32.253Z,10.44
2023-04-29T00:20:32.210Z,10.44
2023-04-29T00:21:32.201Z,10.46
2023-04-29T00:22:32.190Z,10.26
2023-04-29T00:23:32.193Z,10.22
2023-04-29T00:24:32.208Z,10.38
2023-04-29T00:25:32.232Z,10.51
2023-04-29T00:26:32.167Z,10.35
2023-04-29T00:27:32.149Z,10.07
2023-04-29T00:28:32.149Z,10.06
2023-04-29T00:29:32.144Z,10.09
2023-04-29T00:30:32.161Z,10.14
2023-04-29T00:31:32.192Z,9.96
2023-04-29T00:32:32.222Z,9.95
2023-04-29T00:33:32.106Z,10.04
2023-04-29T00:34:33.101Z,10.10
2023-04-29T00:35:32.140Z,10.14
2023-04-29T00:36:32.117Z,10.20
2023-04-29T00:37:32.104Z,10.17
2023-04-29T00:38:32.075Z,9.92
2023-04-29T00:39:32.062Z,9.83
2023-04-29T00:40:32.126Z,10.04
2023-04-29T00:41:32.052Z,10.07
2023-04-29T00:42:32.049Z,10.17
2023-04-29T00:43:32.033Z,10.17
2023-04-29T00:44:32.050Z,10.18
2023-04-29T00:45:32.046Z,10.24
2023-04-29T00:46:32.093Z,10.36
2023-04-29T00:47:32.100Z,10.26
2023-04-29T00:48:32.002Z,10.22
2023-04-29T00:49:32.034Z,10.26
2023-04-29T00:50:31.986Z,10.31
2023-04-29T00:51:31.983Z,10.17
2023-04-29T00:52:31.997Z,10.13
2023-04-29T00:53:31.998Z,9.81
2023-04-29T00:54:32.000Z,9.89
2023-04-29T00:55:31.975Z,9.91
2023-04-29T00:56:31.958Z,10.06
2023-04-29T00:57:31.980Z,10.09
2023-04-29T00:58:31.989Z,10.22
2023-04-29T00:59:32.019Z,10.25
2023-04-29T01:00:31.927Z,10.31
2023-04-29T01:01:31.937Z,10.38
2023-04-29T01:02:32.013Z,10.38
2023-04-29T01:03:32.091Z,10.07
2023-04-29T01:04:32.007Z,10.04
2023-04-29T01:05:31.926Z,10.10
2023-04-29T01:06:31.894Z,10.09
2023-04-29T01:07:31.888Z,10.13
2023-04-29T01:08:31.915Z,10.07
2023-04-29T01:09:31.885Z,10.14
2023-04-29T01:10:31.867Z,10.22
2023-04-29T01:11:31.881Z,10.36
2023-04-29T01:12:31.847Z,10.39
2023-04-29T01:13:31.880Z,10.49
2023-04-29T01:14:31.892Z,10.57
2023-04-29T01:15:31.841Z,10.58
2023-04-29T01:16:31.860Z,10.70
2023-04-29T01:17:31.861Z,10.43
2023-04-29T01:18:31.858Z,10.46
2023-04-29T01:19:31.815Z,10.52
2023-04-29T01:20:31.842Z,10.58
2023-04-29T01:21:31.806Z,10.63
2023-04-29T01:22:31.835Z,10.46
2023-04-29T01:23:31.864Z,10.43
2023-04-29T01:24:31.769Z,10.47
2023-04-29T01:25:31.761Z,10.49
2023-04-29T01:26:31.798Z,10.58
2023-04-29T01:27:31.775Z,10.65
2023-04-29T01:28:31.737Z,10.76
2023-04-29T01:29:31.772Z,10.76
2023-04-29T01:30:31.757Z,10.62
2023-04-29T01:31:31.740Z,10.57
2023-04-29T01:32:34.473Z,10.65
2023-04-29T01:33:31.731Z,10.46
2023-04-29T01:34:31.767Z,10.46
2023-04-29T01:35:31.721Z,10.49
2023-04-29T01:36:31.681Z,10.54
2023-04-29T01:37:31.730Z,10.54
2023-04-29T01:38:31.689Z,10.57
2023-04-29T01:39:31.665Z,10.70
2023-04-29T01:40:31.720Z,10.62
2023-04-29T01:41:31.701Z,10.68
2023-04-29T01:42:31.657Z,10.60
2023-04-29T01:43:31.659Z,10.70
2023-04-29T01:44:31.704Z,10.70
2023-04-29T01:45:31.643Z,10.76
2023-04-29T01:46:31.683Z,10.83
2023-04-29T01:47:31.753Z,10.72
2023-04-29T01:48:31.619Z,10.80
2023-04-29T01:49:31.633Z,10.84
2023-04-29T01:50:31.611Z,10.81
2023-04-29T01:51:31.636Z,10.76
2023-04-29T01:52:31.594Z,10.58
2023-04-29T01:53:31.590Z,10.32
2023-04-29T01:54:31.582Z,10.25
2023-04-29T01:55:31.625Z,10.20
2023-04-29T01:56:31.579Z,10.17
2023-04-29T01:57:31.577Z,10.13
2023-04-29T01:58:31.604Z,10.10
2023-04-29T01:59:31.802Z,10.10
2023-04-29T02:00:32.560Z,10.16
2023-04-29T02:01:31.523Z,10.16
2023-04-29T02:02:31.646Z,10.26
2023-04-29T02:03:31.710Z,10.28
2023-04-29T02:04:31.615Z,10.31
2023-04-29T02:05:31.496Z,10.28
2023-04-29T02:06:31.533Z,10.34
2023-04-29T02:07:31.494Z,10.39
2023-04-29T02:08:31.523Z,10.35
2023-04-29T02:09:31.533Z,10.34
2023-04-29T02:10:31.488Z,10.39
2023-04-29T02:11:31.504Z,10.47
2023-04-29T02:12:31.464Z,10.55
2023-04-29T02:13:31.524Z,10.58
2023-04-29T02:14:31.545Z,10.62
2023-04-29T02:15:31.502Z,10.58
2023-04-29T02:16:31.469Z,10.65
2023-04-29T02:17:31.533Z,10.63
2023-04-29T02:18:31.459Z,10.70
2023-04-29T02:19:31.435Z,10.78
2023-04-29T02:20:31.421Z,10.86
2023-04-29T02:21:31.420Z,10.83
2023-04-29T02:22:31.429Z,10.93
2023-04-29T02:23:31.471Z,11.01
2023-04-29T02:24:31.425Z,10.91
2023-04-29T02:25:31.409Z,10.90
2023-04-29T02:26:31.380Z,10.87
2023-04-29T02:27:31.381Z,11.03
2023-04-29T02:28:31.356Z,11.01
2023-04-29T02:29:31.371Z,10.88
2023-04-29T02:30:31.402Z,10.94
2023-04-29T02:31:31.385Z,10.91
2023-04-29T02:32:31.400Z,10.83
2023-04-29T02:33:31.322Z,10.87
2023-04-29T02:34:31.327Z,10.91
2023-04-29T02:35:31.349Z,10.93
2023-04-29T02:36:31.342Z,11.02
2023-04-29T02:37:31.307Z,11.17
2023-04-29T02:38:31.281Z,11.11
2023-04-29T02:39:31.280Z,11.16
2023-04-29T02:40:31.326Z,11.36
2023-04-29T02:41:31.331Z,11.30
2023-04-29T02:42:31.269Z,11.42
2023-04-29T02:43:31.253Z,11.45
2023-04-29T02:44:31.254Z,11.51
2023-04-29T02:45:31.313Z,11.54
2023-04-29T02:46:31.258Z,11.62
2023-04-29T02:47:31.326Z,11.53
2023-04-29T02:48:31.225Z,11.57
2023-04-29T02:49:31.221Z,11.57
2023-04-29T02:50:31.256Z,11.69
2023-04-29T02:51:31.229Z,11.66
2023-04-29T02:52:31.229Z,11.78
2023-04-29T02:53:31.242Z,11.75
2023-04-29T02:54:31.183Z,11.74
2023-04-29T02:55:31.187Z,11.72
2023-04-29T02:56:31.178Z,11.70
2023-04-29T02:57:31.209Z,11.67
2023-04-29T02:58:31.157Z,11.75
2023-04-29T02:59:31.165Z,11.64
2023-04-29T03:00:31.160Z,11.75
2023-04-29T03:01:31.186Z,11.81
2023-04-29T03:02:31.261Z,11.82
2023-04-29T03:03:31.279Z,11.78
2023-04-29T03:04:31.163Z,11.69
2023-04-29T03:05:31.114Z,11.69
2023-04-29T03:06:31.121Z,11.79
2023-04-29T03:07:31.159Z,11.81
2023-04-29T03:08:31.119Z,11.81
2023-04-29T03:09:31.151Z,11.72
2023-04-29T03:10:31.077Z,11.78
2023-04-29T03:11:31.099Z,11.70
2023-04-29T03:12:31.082Z,11.79
2023-04-29T03:13:31.064Z,11.82
2023-04-29T03:14:31.078Z,11.77
2023-04-29T03:15:31.047Z,11.67
2023-04-29T03:16:31.069Z,11.60
2023-04-29T03:17:31.045Z,11.57
2023-04-29T03:18:31.047Z,11.70
2023-04-29T03:19:31.082Z,11.79
2023-04-29T03:20:31.069Z,11.74
2023-04-29T03:21:31.002Z,11.69
2023-04-29T03:22:30.970Z,11.66
2023-04-29T03:23:31.001Z,11.67
2023-04-29T03:24:30.957Z,11.72
2023-04-29T03:25:31.022Z,11.66
2023-04-29T03:26:30.984Z,11.77
2023-04-29T03:27:30.932Z,11.70
2023-04-29T03:28:30.952Z,11.67
2023-04-29T03:29:30.980Z,11.74
2023-04-29T03:30:30.912Z,11.90
2023-04-29T03:31:30.957Z,11.81
2023-04-29T03:32:30.963Z,11.84
2023-04-29T03:33:30.902Z,11.88
2023-04-29T03:34:30.929Z,11.79
2023-04-29T03:35:30.939Z,11.64
2023-04-29T03:36:30.881Z,11.70
2023-04-29T03:37:30.851Z,11.67
2023-04-29T03:38:30.879Z,11.78
2023-04-29T03:39:30.869Z,11.82
2023-04-29T03:40:30.878Z,11.79
2023-04-29T03:41:30.844Z,11.81
2023-04-29T03:42:30.825Z,11.85
2023-04-29T03:43:30.812Z,11.87
2023-04-29T03:44:30.817Z,11.87
2023-04-29T03:45:30.843Z,11.84
2023-04-29T03:46:30.884Z,11.88
2023-04-29T03:47:30.839Z,11.90
2023-04-29T03:48:30.823Z,12.00
2023-04-29T03:49:30.757Z,11.87
2023-04-29T03:50:30.753Z,11.93
2023-04-29T03:51:30.803Z,11.85
2023-04-29T03:52:30.769Z,11.88
2023-04-29T03:53:30.778Z,11.78
2023-04-29T03:54:30.737Z,11.84
2023-04-29T03:55:30.735Z,11.82
2023-04-29T03:56:30.729Z,11.79
2023-04-29T03:57:30.748Z,11.96
2023-04-29T03:58:30.736Z,11.85
2023-04-29T03:59:30.711Z,11.85
2023-04-29T04:00:30.685Z,11.94
2023-04-29T04:01:30.751Z,11.82
2023-04-29T04:02:30.901Z,11.77
2023-04-29T04:03:30.785Z,11.75
2023-04-29T04:04:30.762Z,11.82
2023-04-29T04:05:30.655Z,11.82
2023-04-29T04:06:30.648Z,11.87
2023-04-29T04:07:30.657Z,11.85
2023-04-29T04:08:30.688Z,11.85
2023-04-29T04:09:30.663Z,11.78
2023-04-29T04:10:30.657Z,11.82
2023-04-29T04:11:30.661Z,11.79
2023-04-29T04:12:30.625Z,11.77
2023-04-29T04:13:30.615Z,11.75
2023-04-29T04:14:30.650Z,11.70
2023-04-29T04:15:30.604Z,11.70
2023-04-29T04:16:30.701Z,11.85
2023-04-29T04:17:30.568Z,11.90
2023-04-29T04:18:30.595Z,11.85
2023-04-29T04:19:30.590Z,11.78
2023-04-29T04:20:30.588Z,11.88
2023-04-29T04:21:30.554Z,11.84
2023-04-29T04:22:30.552Z,11.78
2023-04-29T04:23:30.577Z,11.90
2023-04-29T04:24:30.554Z,11.97
2023-04-29T04:25:30.535Z,11.94
2023-04-29T04:26:30.531Z,11.81
2023-04-29T04:27:30.547Z,11.88
2023-04-29T04:28:30.508Z,11.90
2023-04-29T04:29:30.503Z,11.87
2023-04-29T04:30:30.485Z,11.96
2023-04-29T04:31:30.655Z,11.87
2023-04-29T04:32:30.547Z,11.93
2023-04-29T04:33:30.478Z,11.94
2023-04-29T04:34:30.495Z,11.81
2023-04-29T04:35:30.566Z,11.93
2023-04-29T04:36:30.453Z,11.97
2023-04-29T04:37:30.487Z,11.97
2023-04-29T04:38:30.452Z,11.87
2023-04-29T04:39:30.544Z,11.75
2023-04-29T04:40:30.437Z,11.82
2023-04-29T04:41:30.401Z,11.75
2023-04-29T04:42:30.440Z,11.66
2023-04-29T04:43:30.426Z,11.72
2023-04-29T04:44:30.387Z,11.67
2023-04-29T04:45:30.403Z,11.66
2023-04-29T04:46:30.413Z,11.72
2023-04-29T04:47:30.405Z,11.66
2023-04-29T04:48:30.382Z,11.62
2023-04-29T04:49:30.433Z,11.72
2023-04-29T04:50:30.364Z,11.67
2023-04-29T04:51:30.354Z,11.75
2023-04-29T04:52:30.325Z,11.74
2023-04-29T04:53:30.334Z,11.62
2023-04-29T04:54:30.347Z,11.69
2023-04-29T04:55:30.309Z,11.63
2023-04-29T04:56:30.331Z,11.79
2023-04-29T04:57:30.374Z,11.75
2023-04-29T04:58:30.287Z,11.78
2023-04-29T04:59:30.314Z,11.67
2023-04-29T05:00:30.349Z,11.67
2023-04-29T05:01:30.335Z,11.79
2023-04-29T05:02:30.348Z,11.78
2023-04-29T05:03:30.552Z,11.77
2023-04-29T05:04:30.377Z,11.81
2023-04-29T05:05:30.316Z,11.82
2023-04-29T05:06:30.250Z,11.88
2023-04-29T05:07:30.246Z,11.93
2023-04-29T05:08:30.225Z,11.94
2023-04-29T05:09:30.290Z,11.97
2023-04-29T05:10:30.217Z,11.94
2023-04-29T05:11:30.225Z,11.94
2023-04-29T05:12:31.232Z,11.94
2023-04-29T05:13:30.194Z,11.90
2023-04-29T05:14:30.178Z,11.97
2023-04-29T05:15:30.172Z,11.84
2023-04-29T05:16:30.282Z,11.77
2023-04-29T05:17:30.201Z,11.84
2023-04-29T05:18:30.178Z,12.01
2023-04-29T05:19:30.151Z,12.04
2023-04-29T05:20:30.143Z,12.03
2023-04-29T05:21:30.155Z,12.05
2023-04-29T05:22:30.120Z,12.13
2023-04-29T05:23:30.256Z,12.12
2023-04-29T05:24:31.122Z,12.26
2023-04-29T05:25:30.122Z,12.19
2023-04-29T05:26:30.152Z,12.22
2023-04-29T05:27:30.087Z,12.16
2023-04-29T05:28:30.105Z,12.16
2023-04-29T05:29:30.062Z,12.15
2023-04-29T05:30:30.077Z,12.15
2023-04-29T05:31:31.228Z,12.08
2023-04-29T05:32:30.099Z,12.08
2023-04-29T05:33:30.084Z,12.22
2023-04-29T05:34:30.034Z,12.23
2023-04-29T05:35:30.055Z,12.29
2023-04-29T05:36:30.040Z,12.12
2023-04-29T05:37:30.019Z,12.18
2023-04-29T05:38:30.050Z,12.12
2023-04-29T05:39:29.995Z,12.11
2023-04-29T05:40:29.988Z,12.00
2023-04-29T05:41:29.979Z,12.00
2023-04-29T05:42:29.980Z,12.01
2023-04-29T05:43:29.993Z,11.97
2023-04-29T05:44:30.014Z,12.04
2023-04-29T05:45:29.974Z,11.93
2023-04-29T05:46:29.974Z,11.97
2023-04-29T05:47:30.085Z,12.05
2023-04-29T05:48:29.971Z,11.98
2023-04-29T05:49:29.961Z,11.87
2023-04-29T05:50:29.944Z,11.93
2023-04-29T05:51:29.925Z,11.94
2023-04-29T05:52:29.933Z,11.94
2023-04-29T05:53:29.922Z,11.78
2023-04-29T05:54:29.897Z,11.75
2023-04-29T05:55:29.940Z,11.81
2023-04-29T05:56:29.893Z,11.77
2023-04-29T05:57:29.862Z,11.67
2023-04-29T05:58:30.077Z,11.74
2023-04-29T05:59:30.088Z,11.72
2023-04-29T06:00:29.923Z,11.72
2023-04-29T06:01:29.969Z,11.60
2023-04-29T06:02:29.955Z,11.63
2023-04-29T06:03:29.999Z,11.51
2023-04-29T06:04:29.982Z,11.49
2023-04-29T06:05:30.223Z,11.64
2023-04-29T06:06:30.074Z,11.63
2023-04-29T06:07:29.918Z,11.59
2023-04-29T06:08:30.414Z,11.53
2023-04-29T06:09:29.831Z,11.59
2023-04-29T06:10:29.807Z,11.53
2023-04-29T06:11:29.835Z,11.56
2023-04-29T06:12:29.878Z,11.66
2023-04-29T06:13:29.954Z,11.63
2023-04-29T06:14:29.838Z,11.57
2023-04-29T06:15:29.830Z,11.70
2023-04-29T06:16:29.795Z,11.85
2023-04-29T06:17:29.763Z,11.84
2023-04-29T06:18:29.708Z,11.82
2023-04-29T06:19:29.698Z,11.77
2023-04-29T06:20:29.725Z,11.74
2023-04-29T06:21:29.694Z,11.62
2023-04-29T06:22:29.750Z,11.62
2023-04-29T06:23:29.682Z,11.63
2023-04-29T06:24:29.721Z,11.57
2023-04-29T06:25:29.678Z,11.64
2023-04-29T06:26:29.647Z,11.77
2023-04-29T06:27:29.655Z,11.88
2023-04-29T06:28:29.665Z,11.96
2023-04-29T06:29:29.670Z,12.19
2023-04-29T06:30:29.632Z,12.12
2023-04-29T06:31:29.656Z,11.98
2023-04-29T06:32:29.639Z,11.96
2023-04-29T06:33:29.609Z,11.88
2023-04-29T06:34:29.634Z,11.77
2023-04-29T06:35:29.606Z,11.75
2023-04-29T06:36:29.603Z,11.96
2023-04-29T06:37:29.570Z,11.94
2023-04-29T06:38:29.560Z,11.98
2023-04-29T06:39:29.584Z,11.93
2023-04-29T06:40:29.723Z,12.04
2023-04-29T06:41:29.547Z,12.04
2023-04-29T06:42:29.544Z,12.08
2023-04-29T06:43:29.535Z,12.26
2023-04-29T06:44:30.540Z,12.19
2023-04-29T06:45:29.505Z,12.30
2023-04-29T06:46:29.535Z,12.19
2023-04-29T06:47:29.542Z,12.30
2023-04-29T06:48:29.474Z,12.26
2023-04-29T06:49:29.543Z,12.26
2023-04-29T06:50:29.495Z,12.51
2023-04-29T06:51:29.488Z,12.29
2023-04-29T06:52:29.455Z,12.21
2023-04-29T06:53:29.461Z,12.18
2023-04-29T06:54:29.487Z,12.19
2023-04-29T06:55:29.449Z,12.40
2023-04-29T06:56:29.486Z,12.40
2023-04-29T06:57:29.443Z,12.30
2023-04-29T06:58:29.415Z,12.30
2023-04-29T06:59:29.409Z,12.26
2023-04-29T07:00:29.442Z,12.19
2023-04-29T07:01:29.429Z,12.18
2023-04-29T07:02:29.490Z,12.21
2023-04-29T07:03:29.435Z,12.11
2023-04-29T07:04:29.468Z,12.12
2023-04-29T07:05:29.369Z,12.08
2023-04-29T07:06:29.479Z,12.11
2023-04-29T07:07:29.393Z,12.03
2023-04-29T07:08:29.346Z,12.05
2023-04-29T07:09:29.329Z,12.11
2023-04-29T07:10:29.920Z,12.03
2023-04-29T07:11:29.359Z,12.12
2023-04-29T07:12:29.328Z,12.07
2023-04-29T07:13:29.335Z,12.07
2023-04-29T07:14:29.330Z,12.13
2023-04-29T07:15:29.290Z,12.07
2023-04-29T07:16:29.299Z,12.23
2023-04-29T07:17:29.356Z,12.26
2023-04-29T07:18:29.316Z,12.16
2023-04-29T07:19:29.278Z,12.12
2023-04-29T07:20:29.254Z,12.05
2023-04-29T07:21:29.244Z,12.03
2023-04-29T07:22:29.257Z,12.07
2023-04-29T07:23:29.283Z,12.13
2023-04-29T07:24:29.219Z,12.13
2023-04-29T07:25:29.230Z,12.12
2023-04-29T07:26:29.208Z,12.18
2023-04-29T07:27:30.241Z,12.13
2023-04-29T07:28:29.189Z,12.04
2023-04-29T07:29:29.189Z,12.15
2023-04-29T07:30:29.186Z,12.04
2023-04-29T07:31:29.184Z,12.18
2023-04-29T07:32:29.227Z,12.08
2023-04-29T07:33:29.150Z,12.12
2023-04-29T07:34:29.236Z,12.03
2023-04-29T07:35:29.144Z,12.12
2023-04-29T07:36:29.237Z,12.16
2023-04-29T07:37:29.191Z,12.18
2023-04-29T07:38:29.113Z,12.19
2023-04-29T07:39:29.107Z,12.08
2023-04-29T07:40:29.140Z,12.12
2023-04-29T07:41:29.107Z,12.19
2023-04-29T07:42:29.115Z,12.11
2023-04-29T07:43:29.063Z,12.19
2023-04-29T07:44:29.227Z,12.07
2023-04-29T07:45:29.076Z,12.18
2023-04-29T07:46:29.154Z,12.12
2023-04-29T07:47:29.114Z,12.12
2023-04-29T07:48:29.092Z,12.19
2023-04-29T07:49:29.081Z,12.22
2023-04-29T07:50:29.044Z,12.21
2023-04-29T07:51:29.281Z,12.16
2023-04-29T07:52:29.050Z,12.13
2023-04-29T07:53:29.026Z,12.12
2023-04-29T07:54:29.004Z,12.13
2023-04-29T07:55:29.084Z,12.13
2023-04-29T07:56:29.011Z,12.08
2023-04-29T07:57:29.027Z,12.21
2023-04-29T07:58:29.062Z,12.22
2023-04-29T07:59:29.050Z,12.25
2023-04-29T08:00:29.077Z,12.16
2023-04-29T08:01:28.945Z,12.16
2023-04-29T08:02:29.112Z,12.31
2023-04-29T08:03:29.076Z,12.18
2023-04-29T08:04:29.128Z,12.18
2023-04-29T08:05:29.119Z,12.07
2023-04-29T08:06:28.918Z,12.13
2023-04-29T08:07:28.899Z,12.07
2023-04-29T08:08:28.888Z,12.08
2023-04-29T08:09:28.947Z,12.04
2023-04-29T08:10:28.934Z,12.08
2023-04-29T08:11:28.913Z,12.13
2023-04-29T08:12:28.906Z,12.19
2023-04-29T08:13:28.867Z,12.19
2023-04-29T08:14:29.097Z,12.25
2023-04-29T08:15:28.854Z,12.16
2023-04-29T08:16:28.878Z,12.19
2023-04-29T08:17:28.864Z,12.22
2023-04-29T08:18:28.881Z,12.18
2023-04-29T08:19:28.876Z,12.25
2023-04-29T08:20:28.832Z,12.30
2023-04-29T08:21:28.815Z,12.21
2023-04-29T08:22:28.831Z,12.15
2023-04-29T08:23:28.790Z,12.19
2023-04-29T08:24:28.796Z,12.13
2023-04-29T08:25:28.847Z,12.23
2023-04-29T08:26:28.766Z,12.31
2023-04-29T08:27:28.785Z,12.21
2023-04-29T08:28:28.756Z,12.16
2023-04-29T08:29:28.785Z,12.37
2023-04-29T08:30:28.742Z,12.21
2023-04-29T08:31:28.806Z,12.26
2023-04-29T08:32:28.793Z,12.30
2023-04-29T08:33:28.702Z,12.18
2023-04-29T08:34:28.719Z,12.22
2023-04-29T08:35:28.720Z,12.19
2023-04-29T08:36:28.758Z,12.31
2023-04-29T08:37:28.693Z,12.25
2023-04-29T08:38:28.706Z,12.26
2023-04-29T08:39:28.693Z,12.38
2023-04-29T08:40:28.672Z,12.34
2023-04-29T08:41:28.958Z,12.33
2023-04-29T08:42:28.679Z,12.40
2023-04-29T08:43:28.685Z,12.40
2023-04-29T08:44:28.644Z,12.37
2023-04-29T08:45:28.654Z,12.44
2023-04-29T08:46:28.641Z,12.38
2023-04-29T08:47:28.659Z,12.40
2023-04-29T08:48:28.788Z,12.44
2023-04-29T08:49:28.685Z,12.31
2023-04-29T08:50:28.615Z,12.25
2023-04-29T08:51:28.612Z,12.21
2023-04-29T08:52:28.682Z,12.19
2023-04-29T08:53:28.621Z,12.18
2023-04-29T08:54:28.782Z,12.18
2023-04-29T08:55:28.592Z,12.13
2023-04-29T08:56:28.540Z,12.16
2023-04-29T08:57:28.545Z,12.16
2023-04-29T08:58:28.532Z,12.08
2023-04-29T08:59:28.547Z,12.05
2023-04-29T09:00:28.531Z,12.05
2023-04-29T09:01:28.587Z,12.16
2023-04-29T09:02:28.587Z,12.18
2023-04-29T09:03:28.604Z,12.19
2023-04-29T09:04:28.540Z,12.26
2023-04-29T09:05:29.478Z,12.30
2023-04-29T09:06:28.499Z,12.34
2023-04-29T09:07:28.570Z,12.40
2023-04-29T09:08:28.474Z,12.34
2023-04-29T09:09:28.497Z,12.38
2023-04-29T09:10:28.546Z,12.43
2023-04-29T09:11:28.478Z,12.44
2023-04-29T09:12:28.427Z,12.46
2023-04-29T09:13:28.456Z,12.49
2023-04-29T09:14:28.460Z,12.40
2023-04-29T09:15:28.415Z,12.33
2023-04-29T09:16:28.465Z,12.43
2023-04-29T09:17:28.411Z,12.38
2023-04-29T09:18:28.383Z,12.33
2023-04-29T09:19:28.420Z,12.48
2023-04-29T09:20:28.495Z,12.38
2023-04-29T09:21:28.603Z,12.41
2023-04-29T09:22:28.369Z,12.40
2023-04-29T09:23:28.361Z,12.41
2023-04-29T09:24:28.370Z,12.49
2023-04-29T09:25:28.429Z,12.48
2023-04-29T09:26:28.314Z,12.41
2023-04-29T09:27:28.326Z,12.25
2023-04-29T09:28:28.316Z,12.23
2023-04-29T09:29:28.350Z,12.16
2023-04-29T09:30:28.320Z,12.34
2023-04-29T09:31:28.348Z,12.29
2023-04-29T09:32:28.310Z,12.40
2023-04-29T09:33:28.276Z,12.44
2023-04-29T09:34:28.307Z,12.49
2023-04-29T09:35:28.275Z,12.55
2023-04-29T09:36:28.276Z,12.63
2023-04-29T09:37:28.370Z,12.76
2023-04-29T09:38:28.243Z,12.81
2023-04-29T09:39:28.229Z,12.84
2023-04-29T09:40:28.238Z,12.88
2023-04-29T09:41:28.264Z,12.91
2023-04-29T09:42:28.263Z,12.91
2023-04-29T09:43:28.215Z,12.77
2023-04-29T09:44:29.509Z,12.77
2023-04-29T09:45:28.196Z,12.67
2023-04-29T09:46:28.248Z,12.67
2023-04-29T09:47:28.225Z,12.61
2023-04-29T09:48:28.176Z,12.69
2023-04-29T09:49:28.179Z,12.59
2023-04-29T09:50:28.153Z,12.59
2023-04-29T09:51:28.195Z,12.66
2023-04-29T09:52:28.149Z,12.48
2023-04-29T09:53:28.141Z,12.44
2023-04-29T09:54:28.154Z,12.33
2023-04-29T09:55:28.108Z,12.31
2023-04-29T09:56:28.138Z,12.30
2023-04-29T09:57:28.098Z,12.19
2023-04-29T09:58:28.090Z,12.22
2023-04-29T09:59:28.086Z,12.29
2023-04-29T10:00:28.063Z,12.26
2023-04-29T10:01:28.238Z,12.23
2023-04-29T10:02:28.126Z,12.18
2023-04-29T10:03:28.141Z,12.30
2023-04-29T10:04:28.159Z,12.25
2023-04-29T10:05:28.020Z,12.12
2023-04-29T10:06:28.035Z,12.16
2023-04-29T10:07:28.037Z,12.26
2023-04-29T10:08:28.019Z,12.11
2023-04-29T10:09:28.012Z,12.05
2023-04-29T10:10:29.978Z,12.08
2023-04-29T10:11:29.015Z,12.08
2023-04-29T10:12:27.967Z,12.13
2023-04-29T10:13:28.177Z,12.05
2023-04-29T10:14:27.970Z,12.08
2023-04-29T10:15:27.982Z,12.08
2023-04-29T10:16:27.989Z,12.19
2023-04-29T10:17:27.969Z,12.11
2023-04-29T10:18:27.954Z,12.16
2023-04-29T10:19:27.933Z,12.25
2023-04-29T10:20:28.212Z,12.12
2023-04-29T10:21:27.972Z,12.25
2023-04-29T10:22:27.910Z,12.22
2023-04-29T10:23:28.006Z,12.25
2023-04-29T10:24:27.923Z,12.18
2023-04-29T10:25:27.901Z,12.19
2023-04-29T10:26:27.866Z,12.30
2023-04-29T10:27:27.846Z,12.38
2023-04-29T10:28:27.840Z,12.48
2023-04-29T10:29:27.876Z,12.56
2023-04-29T10:30:27.859Z,12.51
2023-04-29T10:31:27.907Z,12.49
2023-04-29T10:32:30.433Z,12.52
2023-04-29T10:33:27.885Z,12.59
2023-04-29T10:34:28.493Z,12.81
2023-04-29T10:35:27.839Z,12.71
2023-04-29T10:36:27.834Z,12.88
2023-04-29T10:37:27.785Z,12.96
2023-04-29T10:38:27.781Z,13.10
2023-04-29T10:39:27.790Z,12.96
2023-04-29T10:40:27.841Z,12.98
2023-04-29T10:41:27.763Z,13.04
2023-04-29T10:42:27.778Z,13.10
2023-04-29T10:43:27.735Z,13.09
2023-04-29T10:44:27.728Z,13.12
2023-04-29T10:45:27.795Z,13.12
2023-04-29T10:46:27.785Z,13.25
2023-04-29T10:47:27.779Z,13.14
2023-04-29T10:48:27.729Z,13.09
2023-04-29T10:49:27.698Z,13.01
2023-04-29T10:50:27.699Z,12.96
2023-04-29T10:51:27.735Z,12.98
2023-04-29T10:52:27.670Z,13.12
2023-04-29T10:53:27.693Z,13.01
2023-04-29T10:54:27.687Z,12.99
2023-04-29T10:55:27.719Z,12.73
2023-04-29T10:56:27.679Z,12.67
2023-04-29T10:57:27.737Z,12.48
2023-04-29T10:58:27.633Z,12.49
2023-04-29T10:59:27.629Z,12.40
2023-04-29T11:00:27.672Z,12.44
2023-04-29T11:01:27.716Z,12.38
2023-04-29T11:02:27.725Z,12.38
2023-04-29T11:03:28.698Z,12.40
2023-04-29T11:04:27.666Z,12.22
2023-04-29T11:05:27.869Z,12.25
2023-04-29T11:06:28.589Z,12.22
2023-04-29T11:07:27.633Z,12.19
2023-04-29T11:08:27.551Z,12.11
2023-04-29T11:09:27.604Z,12.08
2023-04-29T11:10:27.625Z,12.12
2023-04-29T11:11:28.388Z,12.21
2023-04-29T11:12:28.565Z,12.23
2023-04-29T11:13:27.565Z,12.30
2023-04-29T11:14:27.523Z,12.52
2023-04-29T11:15:27.534Z,12.58
2023-04-29T11:16:27.599Z,12.58
2023-04-29T11:17:28.472Z,12.56
2023-04-29T11:18:28.514Z,12.62
2023-04-29T11:19:27.538Z,12.73
2023-04-29T11:20:27.556Z,12.77
2023-04-29T11:21:27.522Z,12.76
2023-04-29T11:22:27.508Z,12.81
2023-04-29T11:23:28.462Z,12.92
2023-04-29T11:24:28.467Z,12.74
2023-04-29T11:25:27.437Z,12.92
2023-04-29T11:26:27.475Z,12.88
2023-04-29T11:27:27.471Z,12.91
2023-04-29T11:28:27.412Z,12.91
2023-04-29T11:29:27.414Z,12.85
2023-04-29T11:30:27.432Z,12.81
2023-04-29T11:31:28.794Z,12.95
2023-04-29T11:32:28.494Z,12.92
2023-04-29T11:33:27.440Z,13.09
2023-04-29T11:34:27.422Z,12.99
2023-04-29T11:35:27.437Z,12.99
2023-04-29T11:36:27.367Z,12.95
2023-04-29T11:37:27.367Z,12.98
2023-04-29T11:38:27.375Z,12.91
2023-04-29T11:39:27.369Z,12.89
2023-04-29T11:40:27.326Z,13.04
2023-04-29T11:41:27.332Z,12.98
2023-04-29T11:42:27.336Z,13.07
2023-04-29T11:43:27.320Z,12.88
2023-04-29T11:44:27.337Z,12.84
2023-04-29T11:45:27.312Z,12.70
2023-04-29T11:46:27.305Z,12.71
2023-04-29T11:47:27.703Z,12.74
2023-04-29T11:48:27.314Z,12.80
2023-04-29T11:49:27.267Z,12.80
2023-04-29T11:50:27.365Z,12.77
2023-04-29T11:51:27.296Z,12.79
2023-04-29T11:52:27.250Z,12.66
2023-04-29T11:53:27.237Z,12.62
2023-04-29T11:54:27.229Z,12.55
2023-04-29T11:55:27.245Z,12.51
2023-04-29T11:56:27.211Z,12.51
2023-04-29T11:57:27.230Z,12.58
2023-04-29T11:58:27.297Z,12.59
2023-04-29T11:59:27.233Z,12.52
2023-04-29T12:00:27.167Z,12.61
2023-04-29T12:01:27.248Z,12.63
2023-04-29T12:02:27.232Z,12.70
2023-04-29T12:03:27.338Z,12.73
2023-04-29T12:04:27.288Z,12.70
2023-04-29T12:05:27.224Z,12.67
2023-04-29T12:06:27.174Z,12.67
2023-04-29T12:07:27.143Z,12.70
2023-04-29T12:08:27.147Z,12.71
2023-04-29T12:09:27.127Z,12.76
2023-04-29T12:10:27.273Z,12.84
2023-04-29T12:11:27.124Z,12.74
2023-04-29T12:12:27.124Z,12.77
2023-04-29T12:13:27.102Z,12.81
2023-04-29T12:14:27.058Z,12.80
2023-04-29T12:15:27.091Z,12.71
2023-04-29T12:16:27.133Z,12.76
2023-04-29T12:17:27.097Z,12.81
2023-04-29T12:18:27.092Z,12.77
2023-04-29T12:19:27.057Z,12.70
2023-04-29T12:20:27.026Z,12.85
2023-04-29T12:21:27.082Z,12.85
2023-04-29T12:22:27.016Z,12.89
2023-04-29T12:23:27.021Z,12.88
2023-04-29T12:24:26.998Z,12.79
2023-04-29T12:25:26.996Z,12.76
2023-04-29T12:26:27.022Z,12.84
2023-04-29T12:27:26.968Z,12.74
2023-04-29T12:28:27.993Z,12.71
2023-04-29T12:29:26.949Z,12.67
2023-04-29T12:30:27.076Z,12.73
2023-04-29T12:31:26.961Z,12.59
2023-04-29T12:32:27.019Z,12.59
2023-04-29T12:33:27.054Z,12.56
2023-04-29T12:34:26.921Z,12.59
2023-04-29T12:35:26.932Z,12.41
2023-04-29T12:36:26.915Z,12.48
2023-04-29T12:37:26.943Z,12.55
2023-04-29T12:38:26.917Z,12.66
2023-04-29T12:39:26.933Z,12.63
2023-04-29T12:40:27.877Z,12.80
2023-04-29T12:41:26.925Z,12.73
2023-04-29T12:42:26.855Z,12.74
2023-04-29T12:43:26.888Z,12.77
2023-04-29T12:44:26.897Z,12.84
2023-04-29T12:45:26.930Z,12.76
2023-04-29T12:46:26.847Z,12.81
2023-04-29T12:47:26.850Z,12.81
2023-04-29T12:48:30.501Z,12.84
2023-04-29T12:49:28.844Z,12.80
2023-04-29T12:50:27.808Z,12.88
2023-04-29T12:51:26.782Z,12.98
2023-04-29T12:52:26.846Z,12.88